createdAt,value
2022-09-07T00:01:15.087Z,4.00
2022-09-07T00:03:43.472Z,4.10
2022-09-07T00:06:12.925Z,4.10
2022-09-07T00:08:43.720Z,4.10
2022-09-07T00:11:15.059Z,4.40
2022-09-07T00:13:44.979Z,4.30
2022-09-07T00:16:29.025Z,3.90
2022-09-07T00:19:00.076Z,4.30
2022-09-07T00:21:28.723Z,4.40
2022-09-07T00:23:57.221Z,4.50
2022-09-07T00:26:28.175Z,4.70
2022-09-07T00:29:01.188Z,4.80
2022-09-07T00:31:31.317Z,5.50
2022-09-07T00:34:01.532Z,5.00
2022-09-07T00:36:30.236Z,4.00
2022-09-07T00:38:58.564Z,4.60
2022-09-07T00:41:26.761Z,4.30
2022-09-07T00:43:57.476Z,4.50
2022-09-07T00:46:26.752Z,4.60
2022-09-07T00:49:00.884Z,4.70
2022-09-07T00:51:39.718Z,4.80
2022-09-07T00:54:10.949Z,4.40
2022-09-07T00:56:42.198Z,5.00
2022-09-07T00:59:12.134Z,5.20
2022-09-07T01:01:40.679Z,4.70
2022-09-07T01:04:09.668Z,5.40
2022-09-07T01:06:39.863Z,4.90
2022-09-07T01:09:17.311Z,5.20
2022-09-07T01:11:51.058Z,5.60
2022-09-07T01:14:23.039Z,5.50
2022-09-07T01:16:59.810Z,5.50
2022-09-07T01:20:21.614Z,6.10
2022-09-07T01:23:19.006Z,5.90
2022-09-07T01:26:18.534Z,5.50
2022-09-07T01:28:51.983Z,5.50
2022-09-07T01:31:46.896Z,5.00
2022-09-07T01:34:23.835Z,5.70
2022-09-07T01:37:09.990Z,6.00
2022-09-07T01:40:02.108Z,5.70
2022-09-07T01:42:37.477Z,5.60
2022-09-07T01:45:11.536Z,6.30
2022-09-07T01:47:45.520Z,5.50
2022-09-07T01:50:28.862Z,6.00
2022-09-07T01:53:03.052Z,5.40
2022-09-07T01:55:41.416Z,6.60
2022-09-07T01:58:18.914Z,6.30
2022-09-07T02:05:04.503Z,6.30
2022-09-07T02:07:56.531Z,6.50
2022-09-07T02:10:31.702Z,6.90
2022-09-07T02:13:08.429Z,6.60
2022-09-07T02:18:16.727Z,6.70
2022-09-07T02:20:49.150Z,8.20
2022-09-07T02:23:30.824Z,8.80
2022-09-07T02:26:10.638Z,8.60
2022-09-07T02:28:39.561Z,7.40
2022-09-07T02:31:08.372Z,6.90
2022-09-07T02:33:36.648Z,7.40
2022-09-07T02:36:05.516Z,7.90
2022-09-07T02:38:35.468Z,8.70
2022-09-07T02:41:04.483Z,8.20
2022-09-07T02:43:33.213Z,8.20
2022-09-07T02:46:35.111Z,8.30
2022-09-07T02:49:44.371Z,8.00
2022-09-07T02:52:29.666Z,7.60
2022-09-07T02:55:27.217Z,7.80
2022-09-07T03:00:28.656Z,9.00
2022-09-07T03:03:22.569Z,9.60
2022-09-07T03:05:53.640Z,10.00
2022-09-07T03:08:26.790Z,10.90
2022-09-07T03:10:56.123Z,10.10
2022-09-07T03:13:29.371Z,10.10
2022-09-07T03:15:57.781Z,11.00
2022-09-07T03:18:27.770Z,9.40
2022-09-07T03:20:56.757Z,9.40
2022-09-07T03:23:25.074Z,9.30
2022-09-07T03:25:52.972Z,9.20
2022-09-07T03:28:20.919Z,8.60
2022-09-07T03:30:48.987Z,8.70
2022-09-07T03:33:17.555Z,7.90
2022-09-07T03:35:56.486Z,8.40
2022-09-07T03:38:24.490Z,9.00
2022-09-07T03:41:03.735Z,8.30
2022-09-07T03:43:32.719Z,8.10
2022-09-07T03:46:04.040Z,9.10
2022-09-07T03:48:36.066Z,9.30
2022-09-07T03:51:06.847Z,9.60
2022-09-07T03:53:38.075Z,9.10
2022-09-07T03:56:08.556Z,8.90
2022-09-07T03:58:37.297Z,8.80
2022-09-07T04:01:10.081Z,10.30
2022-09-07T04:03:39.576Z,8.90
2022-09-07T04:06:08.184Z,8.60
2022-09-07T04:08:38.005Z,8.60
2022-09-07T04:11:08.596Z,9.20
2022-09-07T04:13:36.997Z,9.90
2022-09-07T04:16:10.820Z,9.20
2022-09-07T04:18:38.787Z,10.20
2022-09-07T04:21:07.148Z,10.90
2022-09-07T04:23:38.289Z,9.70
2022-09-07T04:26:06.666Z,9.80
2022-09-07T04:28:34.565Z,11.20
2022-09-07T04:31:02.972Z,10.10
2022-09-07T04:33:32.306Z,9.20
2022-09-07T04:36:01.676Z,10.20
2022-09-07T04:38:30.739Z,9.20
2022-09-07T04:41:06.611Z,10.30
2022-09-07T04:43:34.499Z,10.00
2022-09-07T04:46:33.884Z,10.50
2022-09-07T04:49:05.021Z,10.50
2022-09-07T04:51:33.622Z,11.60
2022-09-07T04:54:23.698Z,11.90
2022-09-07T04:56:51.920Z,11.80
2022-09-07T04:59:19.929Z,12.10
2022-09-07T05:01:47.925Z,11.80
2022-09-07T05:04:16.119Z,13.00
2022-09-07T05:06:44.420Z,12.80
2022-09-07T05:09:12.519Z,12.40
2022-09-07T05:11:40.553Z,10.80
2022-09-07T05:14:10.280Z,9.80
2022-09-07T05:16:38.418Z,9.30
2022-09-07T05:19:06.429Z,8.40
2022-09-07T05:21:35.080Z,8.30
2022-09-07T05:24:04.433Z,9.20
2022-09-07T05:26:35.223Z,9.60
2022-09-07T05:31:55.057Z,10.90
2022-09-07T05:34:30.091Z,10.00
2022-09-07T05:36:58.823Z,10.20
2022-09-07T05:39:27.841Z,10.50
2022-09-07T05:41:57.159Z,10.90
2022-09-07T05:47:08.842Z,10.60
2022-09-07T05:49:37.627Z,10.70
2022-09-07T05:52:05.827Z,10.10
2022-09-07T05:54:33.808Z,9.20
2022-09-07T05:57:03.603Z,8.70
2022-09-07T05:59:31.780Z,9.70
2022-09-07T06:02:00.399Z,8.90
2022-09-07T06:04:28.480Z,7.50
2022-09-07T06:07:20.623Z,7.80
2022-09-07T06:12:32.870Z,7.60
2022-09-07T06:15:01.765Z,7.20
2022-09-07T06:17:29.962Z,5.70
2022-09-07T06:19:58.038Z,7.00
2022-09-07T06:22:30.554Z,7.30
2022-09-07T06:24:59.624Z,7.80
2022-09-07T06:27:28.783Z,7.90
2022-09-07T06:29:56.918Z,8.40
2022-09-07T06:35:09.048Z,8.20
2022-09-07T06:37:38.201Z,7.30
2022-09-07T06:40:07.789Z,7.50
2022-09-07T06:42:35.949Z,8.00
2022-09-07T06:45:04.991Z,6.70
2022-09-07T06:47:33.009Z,5.00
2022-09-07T06:50:01.516Z,4.50
2022-09-07T06:52:30.145Z,4.60
2022-09-07T06:55:18.017Z,4.60
2022-09-07T06:57:45.928Z,4.60
2022-09-07T07:00:14.344Z,4.50
2022-09-07T07:02:42.423Z,4.10
2022-09-07T07:05:10.556Z,4.30
2022-09-07T07:07:38.569Z,4.60
2022-09-07T07:10:06.801Z,4.90
2022-09-07T07:15:04.957Z,5.10
2022-09-07T07:17:34.069Z,4.60
2022-09-07T07:20:02.348Z,4.70
2022-09-07T07:22:46.280Z,4.50
2022-09-07T07:25:15.694Z,4.90
2022-09-07T07:27:46.198Z,5.10
2022-09-07T07:30:16.371Z,4.50
2022-09-07T07:32:45.374Z,4.50
2022-09-07T07:35:14.347Z,4.40
2022-09-07T07:37:42.771Z,4.20
2022-09-07T07:42:46.248Z,4.30
2022-09-07T07:48:03.348Z,3.90
2022-09-07T07:50:32.298Z,4.00
2022-09-07T07:55:50.049Z,5.10
2022-09-07T07:58:19.127Z,7.50
2022-09-07T08:00:54.736Z,6.30
2022-09-07T08:03:25.176Z,8.00
2022-09-07T08:05:54.212Z,8.30
2022-09-07T08:08:23.510Z,7.50
2022-09-07T08:10:51.919Z,7.80
2022-09-07T08:13:21.617Z,7.60
2022-09-07T08:15:49.868Z,8.00
2022-09-07T08:18:18.200Z,8.00
2022-09-07T08:20:49.499Z,9.00
2022-09-07T08:23:17.289Z,9.40
2022-09-07T08:25:53.160Z,16.00
2022-09-07T08:28:23.610Z,9.10
2022-09-07T08:30:51.596Z,9.20
2022-09-07T08:33:19.523Z,8.80
2022-09-07T08:36:05.157Z,9.60
2022-09-07T08:38:34.871Z,11.00
2022-09-07T08:41:23.985Z,10.50
2022-09-07T08:43:54.939Z,10.70
2022-09-07T08:46:37.662Z,9.50
2022-09-07T08:49:13.827Z,10.00
2022-09-07T08:51:50.387Z,11.40
2022-09-07T09:00:05.040Z,10.00
2022-09-07T09:02:40.298Z,10.60
2022-09-07T09:05:28.239Z,10.90
2022-09-07T09:08:35.113Z,10.80
2022-09-07T09:11:22.235Z,11.10
2022-09-07T09:14:06.592Z,11.20
2022-09-07T09:16:42.943Z,10.70
2022-09-07T09:19:29.536Z,10.20
2022-09-07T09:22:21.794Z,9.30
2022-09-07T09:25:16.493Z,9.60
2022-09-07T09:27:44.346Z,9.90
2022-09-07T09:30:14.569Z,9.50
2022-09-07T09:32:45.671Z,9.30
2022-09-07T09:35:34.509Z,8.80
2022-09-07T09:38:05.450Z,9.50
2022-09-07T09:40:37.322Z,9.60
2022-09-07T09:43:16.001Z,9.10
2022-09-07T09:48:41.674Z,9.40
2022-09-07T09:54:07.701Z,8.70
2022-09-07T09:56:41.115Z,9.30
2022-09-07T10:05:35.449Z,11.10
2022-09-07T10:08:19.527Z,11.00
2022-09-07T10:10:55.823Z,10.20
2022-09-07T10:13:28.750Z,10.40
2022-09-07T10:15:58.969Z,10.20
2022-09-07T10:18:38.703Z,11.00
2022-09-07T10:21:32.242Z,11.30
2022-09-07T10:24:15.154Z,11.10
2022-09-07T10:26:44.886Z,11.70
2022-09-07T10:29:36.456Z,15.60
2022-09-07T10:32:22.994Z,9.70
2022-09-07T10:34:53.759Z,9.60
2022-09-07T10:37:36.481Z,9.10
2022-09-07T10:40:18.327Z,9.70
2022-09-07T10:46:07.470Z,7.20
2022-09-07T10:48:57.063Z,7.20
2022-09-07T10:51:54.104Z,5.60
2022-09-07T10:54:40.271Z,4.30
2022-09-07T10:57:10.992Z,4.20
2022-09-07T11:00:11.979Z,3.30
2022-09-07T11:05:58.603Z,3.10
2022-09-07T11:09:15.817Z,8.20
2022-09-07T11:14:23.844Z,7.50
2022-09-07T11:17:05.303Z,7.00
2022-09-07T11:20:01.121Z,7.50
2022-09-07T11:22:36.663Z,7.00
2022-09-07T11:25:36.132Z,6.90
2022-09-07T11:28:12.169Z,6.40
2022-09-07T11:30:47.482Z,5.90
2022-09-07T11:33:24.684Z,6.40
2022-09-07T11:36:14.633Z,6.10
2022-09-07T11:38:54.654Z,5.50
2022-09-07T11:41:29.871Z,5.20
2022-09-07T11:44:06.509Z,4.90
2022-09-07T11:46:45.737Z,6.10
2022-09-07T11:49:26.127Z,6.10
2022-09-07T11:51:56.427Z,5.40
2022-09-07T11:54:43.412Z,5.20
2022-09-07T11:57:38.694Z,7.60
2022-09-07T12:00:16.085Z,6.40
2022-09-07T12:03:02.349Z,6.50
2022-09-07T12:05:33.312Z,5.70
2022-09-07T12:08:09.895Z,5.10
2022-09-07T12:11:08.426Z,6.30
2022-09-07T12:13:57.700Z,6.40
2022-09-07T12:16:53.494Z,8.20
2022-09-07T12:19:26.807Z,5.30
2022-09-07T12:21:58.093Z,6.20
2022-09-07T12:24:45.307Z,5.20
2022-09-07T12:27:22.237Z,6.20
2022-09-07T12:30:11.330Z,5.10
2022-09-07T12:32:57.055Z,5.10
2022-09-07T12:35:28.812Z,4.80
2022-09-07T12:37:58.437Z,4.30
2022-09-07T12:40:29.307Z,4.70
2022-09-07T12:43:45.128Z,4.30
2022-09-07T12:46:34.967Z,4.90
2022-09-07T12:49:28.173Z,4.30
2022-09-07T12:52:33.664Z,4.10
2022-09-07T12:56:15.741Z,3.80
2022-09-07T12:58:43.299Z,3.60
2022-09-07T13:01:31.706Z,3.80
2022-09-07T13:04:05.162Z,3.90
2022-09-07T13:07:24.037Z,4.20
2022-09-07T13:10:05.354Z,4.00
2022-09-07T13:12:57.265Z,4.00
2022-09-07T13:16:14.897Z,4.30
2022-09-07T13:18:44.428Z,4.40
2022-09-07T13:21:13.044Z,3.60
2022-09-07T13:23:49.506Z,4.10
2022-09-07T13:26:55.095Z,3.50
2022-09-07T13:29:32.954Z,3.60
2022-09-07T13:32:15.854Z,3.10
2022-09-07T13:35:05.639Z,3.60
2022-09-07T13:37:45.203Z,3.30
2022-09-07T13:40:18.291Z,3.80
2022-09-07T13:42:47.272Z,4.00
2022-09-07T13:45:55.955Z,3.80
2022-09-07T13:48:36.700Z,3.60
2022-09-07T13:51:18.925Z,3.90
2022-09-07T13:53:55.620Z,3.20
2022-09-07T13:57:02.809Z,4.00
2022-09-07T13:59:35.036Z,4.00
2022-09-07T14:02:04.030Z,3.20
2022-09-07T14:04:41.185Z,3.90
2022-09-07T14:07:19.832Z,3.30
2022-09-07T14:09:49.060Z,3.30
2022-09-07T14:12:21.124Z,3.50
2022-09-07T14:15:23.735Z,2.70
2022-09-07T14:18:03.094Z,3.80
2022-09-07T14:20:32.551Z,3.50
2022-09-07T14:23:00.456Z,3.50
2022-09-07T14:25:28.652Z,3.60
2022-09-07T14:27:57.952Z,3.90
2022-09-07T14:30:31.534Z,4.10
2022-09-07T14:33:17.231Z,4.10
2022-09-07T14:35:45.206Z,3.70
2022-09-07T14:39:03.931Z,4.10
2022-09-07T14:41:12.108Z,3.80
2022-09-07T14:43:52.856Z,4.30
2022-09-07T14:46:28.766Z,4.20
2022-09-07T14:48:59.741Z,4.20
2022-09-07T14:51:36.062Z,4.30
2022-09-07T14:54:06.973Z,4.20
2022-09-07T14:56:37.675Z,4.50
2022-09-07T14:59:41.723Z,4.20
2022-09-07T15:02:18.735Z,4.60
2022-09-07T15:04:48.638Z,5.10
2022-09-07T15:07:38.552Z,4.90
2022-09-07T15:10:27.072Z,5.40
2022-09-07T15:12:57.985Z,4.60
2022-09-07T15:15:37.159Z,4.90
2022-09-07T15:18:42.872Z,4.70
2022-09-07T15:21:11.557Z,5.00
2022-09-07T15:23:39.883Z,5.50
2022-09-07T15:27:02.028Z,4.40
2022-09-07T15:29:14.454Z,3.90
2022-09-07T15:31:49.808Z,4.30
2022-09-07T15:34:25.019Z,4.60
2022-09-07T15:36:55.870Z,4.10
2022-09-07T15:39:28.063Z,4.20
2022-09-07T15:41:56.735Z,3.90
2022-09-07T15:44:27.854Z,4.00
2022-09-07T15:49:50.304Z,4.30
2022-09-07T15:52:19.263Z,3.90
2022-09-07T15:54:47.094Z,3.50
2022-09-07T16:00:06.636Z,4.50
2022-09-07T16:05:31.128Z,4.90
2022-09-07T16:11:05.787Z,4.50
2022-09-07T16:13:34.944Z,4.40
2022-09-07T16:16:05.603Z,5.40
2022-09-07T16:18:34.590Z,5.30
2022-09-07T16:21:12.284Z,5.00
2022-09-07T16:23:43.563Z,5.30
2022-09-07T16:26:12.413Z,5.60
2022-09-07T16:28:43.991Z,6.00
2022-09-07T16:31:21.629Z,5.90
2022-09-07T16:33:50.482Z,5.70
2022-09-07T16:36:19.131Z,7.00
2022-09-07T16:38:49.955Z,6.50
2022-09-07T16:41:22.963Z,6.60
2022-09-07T16:43:50.823Z,5.80
2022-09-07T16:46:21.229Z,6.20
2022-09-07T16:48:51.319Z,6.30
2022-09-07T16:51:21.497Z,6.00
2022-09-07T16:53:51.749Z,6.50
2022-09-07T16:56:22.931Z,6.40
2022-09-07T16:58:53.309Z,6.00
2022-09-07T17:01:24.143Z,6.10
2022-09-07T17:03:53.117Z,5.90
2022-09-07T17:06:24.791Z,5.80
2022-09-07T17:08:52.980Z,6.20
2022-09-07T17:11:27.503Z,5.50
2022-09-07T17:13:57.219Z,5.70
2022-09-07T17:16:29.619Z,5.90
2022-09-07T17:21:51.855Z,5.30
2022-09-07T17:24:19.907Z,6.00
2022-09-07T17:26:48.334Z,5.40
2022-09-07T17:29:16.270Z,5.40
2022-09-07T17:34:32.104Z,6.00
2022-09-07T17:37:01.117Z,6.00
2022-09-07T17:39:30.045Z,5.40
2022-09-07T17:41:58.295Z,4.90
2022-09-07T17:44:30.763Z,5.60
2022-09-07T17:47:01.430Z,5.90
2022-09-07T17:49:29.521Z,5.80
2022-09-07T17:51:58.644Z,5.70
2022-09-07T17:54:27.125Z,6.90
2022-09-07T17:56:55.064Z,6.50
2022-09-07T18:02:13.958Z,6.00
2022-09-07T18:04:42.759Z,6.30
2022-09-07T18:07:11.023Z,7.40
2022-09-07T18:09:39.162Z,7.60
2022-09-07T18:12:07.188Z,9.30
2022-09-07T18:14:35.171Z,13.10
2022-09-07T18:17:05.433Z,9.60
2022-09-07T18:19:33.504Z,9.30
2022-09-07T18:22:03.946Z,9.10
2022-09-07T18:24:32.014Z,9.90
2022-09-07T18:26:59.927Z,9.60
2022-09-07T18:29:29.947Z,8.30
2022-09-07T18:32:01.213Z,8.30
2022-09-07T18:34:29.421Z,8.90
2022-09-07T18:36:58.687Z,7.90
2022-09-07T18:39:27.567Z,8.80
2022-09-07T18:41:55.741Z,8.40
2022-09-07T18:47:22.071Z,7.90
2022-09-07T18:49:51.895Z,7.30
2022-09-07T18:55:09.965Z,6.50
2022-09-07T18:57:38.619Z,6.60
2022-09-07T19:00:08.933Z,7.00
2022-09-07T19:02:37.134Z,6.70
2022-09-07T19:07:53.557Z,6.60
2022-09-07T19:10:21.520Z,6.00
2022-09-07T19:12:49.450Z,6.10
2022-09-07T19:15:17.391Z,5.40
2022-09-07T19:17:45.273Z,5.20
2022-09-07T19:20:13.220Z,5.00
2022-09-07T19:22:42.902Z,5.30
2022-09-07T19:25:11.470Z,5.80
2022-09-07T19:27:39.753Z,5.90
2022-09-07T19:30:08.508Z,6.10
2022-09-07T19:32:36.631Z,6.00
2022-09-07T19:35:04.807Z,5.90
2022-09-07T19:37:33.275Z,7.00
2022-09-07T19:40:02.056Z,12.50
2022-09-07T19:42:30.194Z,6.60
2022-09-07T19:44:58.228Z,7.10
2022-09-07T19:47:26.842Z,6.60
2022-09-07T19:49:54.928Z,6.10
2022-09-07T19:52:25.580Z,6.60
2022-09-07T19:54:53.588Z,6.90
2022-09-07T19:57:21.604Z,6.80
2022-09-07T19:59:49.774Z,6.90
2022-09-07T20:02:17.895Z,7.00
2022-09-07T20:04:45.877Z,8.00
2022-09-07T20:07:13.906Z,11.00
2022-09-07T20:09:41.778Z,8.20
2022-09-07T20:12:09.787Z,7.60
2022-09-07T20:14:37.951Z,7.50
2022-09-07T20:17:05.968Z,6.80
2022-09-07T20:19:33.871Z,6.70
2022-09-07T20:22:01.800Z,7.90
2022-09-07T20:24:29.890Z,8.10
2022-09-07T20:26:57.901Z,7.90
2022-09-07T20:29:28.641Z,6.90
2022-09-07T20:32:01.227Z,8.60
2022-09-07T20:34:29.267Z,7.80
2022-09-07T20:36:57.346Z,8.00
2022-09-07T20:39:25.661Z,7.90
2022-09-07T20:41:53.660Z,7.80
2022-09-07T20:44:21.500Z,8.50
2022-09-07T20:46:49.986Z,9.20
2022-09-07T20:49:17.844Z,8.60
2022-09-07T20:51:45.723Z,9.10
2022-09-07T20:54:13.643Z,9.70
2022-09-07T20:56:41.520Z,9.20
2022-09-07T20:59:09.876Z,9.00
2022-09-07T21:01:37.906Z,8.90
2022-09-07T21:04:06.367Z,8.90
2022-09-07T21:06:34.856Z,8.50
2022-09-07T21:09:02.931Z,9.10
2022-09-07T21:11:33.974Z,9.10
2022-09-07T21:14:07.647Z,10.10
2022-09-07T21:16:36.453Z,9.10
2022-09-07T21:19:08.001Z,10.10
2022-09-07T21:21:41.351Z,10.20
2022-09-07T21:24:21.302Z,10.30
2022-09-07T21:26:50.467Z,10.40
2022-09-07T21:29:21.187Z,10.60
2022-09-07T21:31:49.152Z,9.50
2022-09-07T21:34:17.092Z,12.50
2022-09-07T21:36:46.134Z,10.50
2022-09-07T21:39:14.885Z,11.40
2022-09-07T21:41:44.123Z,11.80
2022-09-07T21:44:14.259Z,12.10
2022-09-07T21:46:43.534Z,14.70
2022-09-07T21:49:11.841Z,14.30
2022-09-07T21:51:39.853Z,12.90
2022-09-07T21:54:08.000Z,13.90
2022-09-07T21:56:36.368Z,14.10
2022-09-07T21:59:05.242Z,15.50
2022-09-07T22:01:33.969Z,16.30
2022-09-07T22:04:04.518Z,15.00
2022-09-07T22:06:33.258Z,14.60
2022-09-07T22:09:02.603Z,14.30
2022-09-07T22:11:31.243Z,13.50
2022-09-07T22:14:03.147Z,12.60
2022-09-07T22:16:33.923Z,13.10
2022-09-07T22:19:02.085Z,13.70
2022-09-07T22:21:30.870Z,12.50
2022-09-07T22:24:04.484Z,12.70
2022-09-07T22:26:37.722Z,12.50
2022-09-07T22:29:06.823Z,12.80
2022-09-07T22:31:37.232Z,14.70
2022-09-07T22:34:08.740Z,14.10
2022-09-07T22:36:47.376Z,14.10
2022-09-07T22:39:18.079Z,14.40
2022-09-07T22:41:47.474Z,13.80
2022-09-07T22:44:18.162Z,12.90
2022-09-07T22:46:47.541Z,12.60
2022-09-07T22:49:16.980Z,11.30
2022-09-07T22:51:45.635Z,11.00
2022-09-07T22:54:14.144Z,10.90
2022-09-07T22:56:42.091Z,10.00
2022-09-07T22:59:10.599Z,11.50
2022-09-07T23:01:38.619Z,10.50
2022-09-07T23:04:07.410Z,10.60
2022-09-07T23:06:38.232Z,11.20
2022-09-07T23:09:09.104Z,11.20
2022-09-07T23:11:37.835Z,10.90
2022-09-07T23:14:08.645Z,10.30
2022-09-07T23:16:36.580Z,10.40
2022-09-07T23:19:05.209Z,10.60
2022-09-07T23:21:33.033Z,11.10
2022-09-07T23:24:01.431Z,10.40
2022-09-07T23:26:31.371Z,9.90
2022-09-07T23:29:01.734Z,10.10
2022-09-07T23:31:31.687Z,10.40
2022-09-07T23:34:01.131Z,11.00
2022-09-07T23:36:30.058Z,11.30
2022-09-07T23:38:59.973Z,11.40
2022-09-07T23:41:28.831Z,12.00
2022-09-07T23:43:57.243Z,12.60
2022-09-07T23:46:25.504Z,12.10
2022-09-07T23:48:53.463Z,13.20
2022-09-07T23:51:24.274Z,12.10
2022-09-07T23:53:53.563Z,12.90
2022-09-07T23:56:24.428Z,13.70
2022-09-07T23:58:52.547Z,13.20
